TimeCDT,TemperatureF,Dew PointF,Humidity,Sea Level PressureIn,VisibilityMPH,Wind Direction,Wind SpeedMPH,Gust SpeedMPH,PrecipitationIn,Events,Conditions,WindDirDegrees,DateUTC
12:13 AM,19.9,17.8,91,30.35,10.0,Calm,Calm,-,N/A,,Clear,0,2013-04-03 05:13:00
12:33 AM,18.3,16.0,91,30.35,10.0,Calm,Calm,-,N/A,,Clear,0,2013-04-03 05:33:00
12:53 AM,19.2,16.5,89,30.35,10.0,Calm,Calm,-,N/A,,Clear,0,2013-04-03 05:53:00
1:13 AM,19.8,17.2,90,30.35,10.0,Calm,Calm,-,N/A,,Clear,0,2013-04-03 06:13:00
1:33 AM,19.0,16.5,90,30.35,10.0,Calm,Calm,-,N/A,,Clear,0,2013-04-03 06:33:00
1:53 AM,17.6,15.8,93,30.35,10.0,Calm,Calm,-,N/A,,Clear,0,2013-04-03 06:53:00
2:13 AM,18.1,16.7,94,30.35,10.0,Calm,Calm,-,N/A,,Clear,0,2013-04-03 07:13:00
2:33 AM,18.5,16.7,93,30.34,10.0,Calm,Calm,-,N/A,,Clear,0,2013-04-03 07:33:00
2:53 AM,18.1,16.0,91,30.34,10.0,Calm,Calm,-,N/A,,Clear,0,2013-04-03 07:53:00
3:13 AM,17.8,16.0,93,30.33,10.0,Calm,Calm,-,N/A,,Clear,0,2013-04-03 08:13:00
3:33 AM,16.9,15.1,93,30.33,10.0,Calm,Calm,-,N/A,,Clear,0,2013-04-03 08:33:00
4:13 AM,16.5,14.7,93,30.33,10.0,Calm,Calm,-,N/A,,Clear,0,2013-04-03 09:13:00
4:33 AM,17.2,15.6,93,30.33,10.0,Calm,Calm,-,N/A,,Clear,0,2013-04-03 09:33:00
4:52 AM,16.2,14.5,93,30.33,10.0,Calm,Calm,-,N/A,,Clear,0,2013-04-03 09:52:00
5:13 AM,16.3,14.9,94,30.33,10.0,Calm,Calm,-,N/A,,Clear,0,2013-04-03 10:13:00
5:33 AM,16.5,14.7,93,30.33,10.0,Calm,Calm,-,N/A,,Clear,0,2013-04-03 10:33:00
5:53 AM,16.2,14.7,94,30.33,10.0,Calm,Calm,-,N/A,,Clear,0,2013-04-03 10:53:00
6:13 AM,16.7,14.9,93,30.33,10.0,Calm,Calm,-,N/A,,Clear,0,2013-04-03 11:13:00
6:33 AM,18.1,15.6,90,30.33,10.0,SE,5.8,-,N/A,,Clear,140,2013-04-03 11:33:00
6:53 AM,19.2,15.6,86,30.32,10.0,SE,5.8,-,N/A,,Clear,140,2013-04-03 11:53:00
7:13 AM,19.0,15.6,87,30.33,10.0,SE,5.8,-,N/A,,Clear,140,2013-04-03 12:13:00
7:33 AM,20.1,15.8,83,30.33,10.0,SE,5.8,-,N/A,,Clear,140,2013-04-03 12:33:00
7:53 AM,21.2,15.8,80,30.33,10.0,SE,6.9,-,N/A,,Clear,130,2013-04-03 12:53:00
8:13 AM,22.5,15.8,76,30.33,10.0,SE,6.9,-,N/A,,Clear,140,2013-04-03 13:13:00
8:33 AM,24.4,15.8,70,30.33,10.0,SE,9.2,-,N/A,,Clear,140,2013-04-03 13:33:00
8:53 AM,25.7,16.5,68,30.33,10.0,SSE,9.2,-,N/A,,Clear,150,2013-04-03 13:53:00
9:13 AM,27.0,17.4,67,30.32,10.0,SSE,9.2,-,N/A,,Clear,150,2013-04-03 14:13:00
9:33 AM,28.6,18.3,65,30.31,10.0,SSE,8.1,-,N/A,,Clear,150,2013-04-03 14:33:00
9:53 AM,30.4,19.4,64,30.30,10.0,SE,10.4,-,N/A,,Clear,140,2013-04-03 14:53:00
10:13 AM,31.3,19.9,63,30.30,10.0,SSE,9.2,18.4,N/A,,Clear,150,2013-04-03 15:13:00
10:32 AM,32.0,20.7,63,30.29,10.0,SE,10.4,17.3,N/A,,Clear,140,2013-04-03 15:32:00
11:13 AM,32.7,21.9,64,30.28,10.0,SSE,15.0,20.7,N/A,,Clear,150,2013-04-03 16:13:00
11:33 AM,34.0,22.8,64,30.26,10.0,SE,12.7,20.7,N/A,,Clear,130,2013-04-03 16:33:00
11:53 AM,34.9,23.2,62,30.26,10.0,SE,12.7,20.7,N/A,,Clear,140,2013-04-03 16:53:00
12:12 PM,35.1,22.8,61,30.24,10.0,SE,13.8,20.7,N/A,,Clear,140,2013-04-03 17:12:00
12:33 PM,36.0,23.9,62,30.24,10.0,SE,15.0,20.7,N/A,,Clear,140,2013-04-03 17:33:00
12:53 PM,36.5,24.1,61,30.23,10.0,SE,16.1,21.9,N/A,,Clear,140,2013-04-03 17:53:00
1:13 PM,37.0,25.3,63,30.21,10.0,SSE,16.1,23.0,N/A,,Clear,150,2013-04-03 18:13:00
1:33 PM,37.2,25.9,64,30.21,10.0,SE,15.0,23.0,N/A,,Clear,140,2013-04-03 18:33:00
1:53 PM,38.1,26.6,63,30.21,10.0,SE,15.0,21.9,N/A,,Clear,140,2013-04-03 18:53:00
2:13 PM,38.8,27.5,64,30.19,10.0,SE,17.3,20.7,N/A,,Clear,140,2013-04-03 19:13:00
2:33 PM,39.6,28.6,65,30.18,10.0,SSE,13.8,20.7,N/A,,Clear,150,2013-04-03 19:33:00
2:53 PM,40.3,29.1,64,30.17,10.0,SSE,15.0,26.5,N/A,,Clear,150,2013-04-03 19:53:00
3:13 PM,41.0,30.0,65,30.17,10.0,SSE,13.8,24.2,N/A,,Clear,160,2013-04-03 20:13:00
3:33 PM,41.4,30.2,65,30.16,10.0,SSE,15.0,25.3,N/A,,Clear,150,2013-04-03 20:33:00
3:53 PM,42.1,30.9,65,30.15,10.0,SSE,17.3,-,N/A,,Clear,160,2013-04-03 20:53:00
4:13 PM,42.3,31.5,66,30.13,10.0,SSE,13.8,25.3,N/A,,Clear,150,2013-04-03 21:13:00
4:33 PM,43.0,32.0,65,30.12,10.0,SSE,18.4,24.2,N/A,,Clear,160,2013-04-03 21:33:00
4:53 PM,43.2,32.0,65,30.11,10.0,SSE,16.1,24.2,N/A,,Clear,160,2013-04-03 21:53:00
5:12 PM,43.5,32.7,66,30.10,10.0,SSE,12.7,26.5,N/A,,Clear,160,2013-04-03 22:12:00
5:33 PM,43.7,33.1,66,30.09,10.0,SSE,12.7,19.6,N/A,,Clear,150,2013-04-03 22:33:00
5:53 PM,43.9,33.3,66,30.08,10.0,SSE,12.7,21.9,N/A,,Clear,150,2013-04-03 22:53:00
6:12 PM,43.7,33.8,68,30.07,10.0,SSE,13.8,17.3,N/A,,Clear,150,2013-04-03 23:12:00
6:33 PM,43.7,33.8,68,30.06,10.0,SSE,16.1,20.7,N/A,,Clear,150,2013-04-03 23:33:00
6:53 PM,43.3,34.2,70,30.05,10.0,SSE,13.8,20.7,N/A,,Clear,150,2013-04-03 23:53:00
7:13 PM,42.6,34.2,72,30.04,10.0,SE,12.7,17.3,N/A,,Clear,140,2013-04-04 00:13:00
7:33 PM,42.1,34.2,74,30.03,10.0,SE,12.7,-,N/A,,Clear,140,2013-04-04 00:33:00
7:53 PM,41.7,34.2,75,30.02,10.0,SSE,12.7,18.4,N/A,,Clear,150,2013-04-04 00:53:00
8:13 PM,41.2,34.2,76,30.01,10.0,SSE,13.8,20.7,N/A,,Clear,150,2013-04-04 01:13:00
8:33 PM,41.2,34.2,76,30.01,10.0,SSE,12.7,19.6,N/A,,Clear,160,2013-04-04 01:33:00
8:53 PM,41.4,33.8,74,30.01,10.0,SSE,13.8,17.3,N/A,,Clear,160,2013-04-04 01:53:00
9:13 PM,41.5,33.1,72,30.01,10.0,SSE,12.7,19.6,N/A,,Clear,160,2013-04-04 02:13:00
9:33 PM,41.9,32.7,70,30.01,10.0,South,15.0,24.2,N/A,,Clear,170,2013-04-04 02:33:00
9:53 PM,41.9,32.4,69,30.01,10.0,South,16.1,21.9,N/A,,Clear,170,2013-04-04 02:53:00
10:13 PM,41.5,32.0,69,30.00,10.0,South,18.4,24.2,N/A,,Scattered Clouds,170,2013-04-04 03:13:00
10:33 PM,41.4,32.0,69,29.99,10.0,South,17.3,21.9,N/A,,Scattered Clouds,180,2013-04-04 03:33:00
10:52 PM,41.2,32.0,70,29.99,10.0,South,16.1,23.0,N/A,,Clear,180,2013-04-04 03:52:00
11:13 PM,41.4,32.0,69,29.99,10.0,South,16.1,24.2,N/A,,Clear,190,2013-04-04 04:13:00
11:33 PM,41.2,31.6,69,29.97,10.0,South,16.1,24.2,N/A,,Scattered Clouds,180,2013-04-04 04:33:00
11:53 PM,41.4,31.6,68,29.98,10.0,South,16.1,21.9,N/A,,Mostly Cloudy,190,2013-04-04 04:53:00